sensor_id;sensor_type;location;lat;lon;timestamp;pressure;altitude;pressure_sealevel;temperature;humidity
39891;BME280;25564;53.312;9.790;2023-08-31T00:01:00;99782.00;;;13.70;100.00
39891;BME280;25564;53.312;9.790;2023-08-31T00:03:32;99772.53;;;13.63;100.00
39891;BME280;25564;53.312;9.790;2023-08-31T00:06:04;99703.25;;;13.24;100.00
39891;BME280;25564;53.312;9.790;2023-08-31T00:08:35;99760.72;;;13.50;100.00
39891;BME280;25564;53.312;9.790;2023-08-31T00:11:07;99792.88;;;13.65;100.00
39891;BME280;25564;53.312;9.790;2023-08-31T00:13:38;99782.59;;;13.56;100.00
39891;BME280;25564;53.312;9.790;2023-08-31T00:16:10;99792.34;;;13.57;100.00
39891;BME280;25564;53.312;9.790;2023-08-31T00:18:44;99706.03;;;13.00;100.00
39891;BME280;25564;53.312;9.790;2023-08-31T00:21:16;99779.19;;;13.34;100.00
39891;BME280;25564;53.312;9.790;2023-08-31T00:23:47;99785.38;;;13.34;100.00
39891;BME280;25564;53.312;9.790;2023-08-31T00:26:19;99788.38;;;13.27;100.00
39891;BME280;25564;53.312;9.790;2023-08-31T00:28:51;99775.56;;;13.15;100.00
39891;BME280;25564;53.312;9.790;2023-08-31T00:31:23;99787.28;;;13.10;99.94
39891;BME280;25564;53.312;9.790;2023-08-31T00:33:54;99788.28;;;13.08;100.00
39891;BME280;25564;53.312;9.790;2023-08-31T00:36:26;99801.66;;;13.06;100.00
39891;BME280;25564;53.312;9.790;2023-08-31T00:38:58;99769.72;;;12.85;100.00
39891;BME280;25564;53.312;9.790;2023-08-31T00:41:30;99798.72;;;12.92;99.97
39891;BME280;25564;53.312;9.790;2023-08-31T00:44:01;99800.56;;;12.90;100.00
39891;BME280;25564;53.312;9.790;2023-08-31T00:46:35;99798.28;;;12.81;100.00
39891;BME280;25564;53.312;9.790;2023-08-31T00:49:07;99799.22;;;12.80;99.99
39891;BME280;25564;53.312;9.790;2023-08-31T00:51:40;99795.88;;;12.75;99.91
39891;BME280;25564;53.312;9.790;2023-08-31T00:54:11;99718.19;;;12.23;100.00
39891;BME280;25564;53.312;9.790;2023-08-31T00:56:43;99799.97;;;12.62;99.64
39891;BME280;25564;53.312;9.790;2023-08-31T00:59:14;99806.09;;;12.64;100.00
39891;BME280;25564;53.312;9.790;2023-08-31T01:02:10;99815.75;;;12.66;100.00
39891;BME280;25564;53.312;9.790;2023-08-31T01:04:59;99807.03;;;12.63;99.99
39891;BME280;25564;53.312;9.790;2023-08-31T01:07:45;99767.44;;;12.33;100.00
39891;BME280;25564;53.312;9.790;2023-08-31T01:13:07;99794.59;;;12.41;100.00
39891;BME280;25564;53.312;9.790;2023-08-31T01:15:46;99798.88;;;12.46;100.00
39891;BME280;25564;53.312;9.790;2023-08-31T01:18:22;99800.59;;;12.47;100.00
39891;BME280;25564;53.312;9.790;2023-08-31T01:21:12;99799.00;;;12.42;100.00
39891;BME280;25564;53.312;9.790;2023-08-31T01:23:50;99806.84;;;12.46;100.00
39891;BME280;25564;53.312;9.790;2023-08-31T01:26:23;99780.06;;;12.28;100.00
39891;BME280;25564;53.312;9.790;2023-08-31T01:28:55;99824.34;;;12.51;100.00
39891;BME280;25564;53.312;9.790;2023-08-31T01:31:27;99828.00;;;12.49;100.00
39891;BME280;25564;53.312;9.790;2023-08-31T01:33:58;99800.16;;;12.35;100.00
39891;BME280;25564;53.312;9.790;2023-08-31T01:36:32;99822.03;;;12.43;100.00
39891;BME280;25564;53.312;9.790;2023-08-31T01:39:12;99780.53;;;12.16;100.00
39891;BME280;25564;53.312;9.790;2023-08-31T01:41:48;99734.66;;;11.88;100.00
39891;BME280;25564;53.312;9.790;2023-08-31T01:44:22;99816.13;;;12.35;100.00
39891;BME280;25564;53.312;9.790;2023-08-31T01:47:04;99792.78;;;12.20;100.00
39891;BME280;25564;53.312;9.790;2023-08-31T01:49:39;99803.59;;;12.16;100.00
39891;BME280;25564;53.312;9.790;2023-08-31T01:52:10;99803.53;;;12.17;100.00
39891;BME280;25564;53.312;9.790;2023-08-31T01:54:42;99812.69;;;12.10;100.00
39891;BME280;25564;53.312;9.790;2023-08-31T01:57:13;99813.59;;;12.09;100.00
39891;BME280;25564;53.312;9.790;2023-08-31T01:59:44;99802.41;;;12.01;100.00
39891;BME280;25564;53.312;9.790;2023-08-31T02:02:16;99744.41;;;11.64;100.00
39891;BME280;25564;53.312;9.790;2023-08-31T02:04:47;99782.69;;;11.83;100.00
39891;BME280;25564;53.312;9.790;2023-08-31T02:07:19;99822.06;;;11.97;100.00
39891;BME280;25564;53.312;9.790;2023-08-31T02:09:51;99822.22;;;11.92;99.86
39891;BME280;25564;53.312;9.790;2023-08-31T02:12:22;99831.06;;;11.93;100.00
39891;BME280;25564;53.312;9.790;2023-08-31T02:14:53;99789.63;;;11.62;100.00
39891;BME280;25564;53.312;9.790;2023-08-31T02:17:25;99819.16;;;11.79;100.00
39891;BME280;25564;53.312;9.790;2023-08-31T02:19:57;99825.34;;;11.80;100.00
39891;BME280;25564;53.312;9.790;2023-08-31T02:22:30;99841.13;;;11.85;100.00
39891;BME280;25564;53.312;9.790;2023-08-31T02:25:03;99826.63;;;11.68;100.00
39891;BME280;25564;53.312;9.790;2023-08-31T02:27:34;99791.97;;;11.46;100.00
39891;BME280;25564;53.312;9.790;2023-08-31T02:30:06;99827.66;;;11.64;100.00
39891;BME280;25564;53.312;9.790;2023-08-31T02:32:37;99846.91;;;11.71;100.00
39891;BME280;25564;53.312;9.790;2023-08-31T02:35:09;99778.41;;;11.31;100.00
39891;BME280;25564;53.312;9.790;2023-08-31T02:37:41;99827.97;;;11.55;100.00
39891;BME280;25564;53.312;9.790;2023-08-31T02:40:13;99836.88;;;11.54;100.00
39891;BME280;25564;53.312;9.790;2023-08-31T02:42:45;99836.16;;;11.49;100.00
39891;BME280;25564;53.312;9.790;2023-08-31T02:45:16;99853.63;;;11.56;100.00
39891;BME280;25564;53.312;9.790;2023-08-31T02:47:49;99849.50;;;11.47;100.00
39891;BME280;25564;53.312;9.790;2023-08-31T02:50:21;99830.44;;;11.36;100.00
39891;BME280;25564;53.312;9.790;2023-08-31T02:52:52;99859.31;;;11.45;100.00
39891;BME280;25564;53.312;9.790;2023-08-31T02:55:24;99773.50;;;10.94;100.00
39891;BME280;25564;53.312;9.790;2023-08-31T02:57:55;99856.84;;;11.41;100.00
39891;BME280;25564;53.312;9.790;2023-08-31T03:00:27;99850.94;;;11.33;100.00
39891;BME280;25564;53.312;9.790;2023-08-31T03:02:59;99858.91;;;11.33;100.00
39891;BME280;25564;53.312;9.790;2023-08-31T03:05:31;99839.88;;;11.20;100.00
39891;BME280;25564;53.312;9.790;2023-08-31T03:08:02;99853.84;;;11.25;100.00
39891;BME280;25564;53.312;9.790;2023-08-31T03:10:36;99860.94;;;11.25;100.00
39891;BME280;25564;53.312;9.790;2023-08-31T03:13:08;99853.09;;;11.22;100.00
39891;BME280;25564;53.312;9.790;2023-08-31T03:15:40;99873.38;;;11.24;100.00
39891;BME280;25564;53.312;9.790;2023-08-31T03:18:11;99840.22;;;11.09;100.00
39891;BME280;25564;53.312;9.790;2023-08-31T03:20:43;99855.84;;;11.19;100.00
39891;BME280;25564;53.312;9.790;2023-08-31T03:23:14;99841.25;;;11.05;100.00
39891;BME280;25564;53.312;9.790;2023-08-31T03:25:46;99800.47;;;10.81;100.00
39891;BME280;25564;53.312;9.790;2023-08-31T03:28:18;99858.72;;;11.12;100.00
39891;BME280;25564;53.312;9.790;2023-08-31T03:30:57;99852.63;;;11.09;100.00
39891;BME280;25564;53.312;9.790;2023-08-31T03:33:28;99835.31;;;10.97;100.00
39891;BME280;25564;53.312;9.790;2023-08-31T03:36:01;99855.53;;;11.01;100.00
39891;BME280;25564;53.312;9.790;2023-08-31T03:38:33;99791.25;;;10.65;100.00
39891;BME280;25564;53.312;9.790;2023-08-31T03:41:09;99852.38;;;10.90;100.00
39891;BME280;25564;53.312;9.790;2023-08-31T03:43:40;99844.56;;;10.86;100.00
39891;BME280;25564;53.312;9.790;2023-08-31T03:46:12;99831.53;;;10.78;100.00
39891;BME280;25564;53.312;9.790;2023-08-31T03:48:43;99796.91;;;10.55;100.00
39891;BME280;25564;53.312;9.790;2023-08-31T03:51:15;99861.34;;;10.86;99.79
39891;BME280;25564;53.312;9.790;2023-08-31T03:53:47;99861.44;;;10.83;100.00
39891;BME280;25564;53.312;9.790;2023-08-31T03:56:19;99856.25;;;10.80;100.00
39891;BME280;25564;53.312;9.790;2023-08-31T03:58:50;99854.78;;;10.70;100.00
39891;BME280;25564;53.312;9.790;2023-08-31T04:01:22;99852.97;;;10.72;100.00
39891;BME280;25564;53.312;9.790;2023-08-31T04:03:54;99795.88;;;10.32;100.00
39891;BME280;25564;53.312;9.790;2023-08-31T04:06:26;99860.09;;;10.70;100.00
39891;BME280;25564;53.312;9.790;2023-08-31T04:08:58;99854.16;;;10.62;100.00
39891;BME280;25564;53.312;9.790;2023-08-31T04:11:30;99786.53;;;10.19;100.00
39891;BME280;25564;53.312;9.790;2023-08-31T04:14:01;99838.63;;;10.49;100.00
39891;BME280;25564;53.312;9.790;2023-08-31T04:16:32;99863.03;;;10.61;100.00
39891;BME280;25564;53.312;9.790;2023-08-31T04:19:04;99866.81;;;10.54;100.00
39891;BME280;25564;53.312;9.790;2023-08-31T04:21:35;99873.84;;;10.55;99.99
39891;BME280;25564;53.312;9.790;2023-08-31T04:24:08;99876.72;;;10.47;99.88
39891;BME280;25564;53.312;9.790;2023-08-31T04:26:40;99870.59;;;10.45;100.00
39891;BME280;25564;53.312;9.790;2023-08-31T04:29:11;99889.03;;;10.49;99.85
39891;BME280;25564;53.312;9.790;2023-08-31T04:31:43;99861.47;;;10.27;99.94
39891;BME280;25564;53.312;9.790;2023-08-31T04:34:14;99889.22;;;10.43;99.81
39891;BME280;25564;53.312;9.790;2023-08-31T04:36:46;99902.34;;;10.48;100.00
39891;BME280;25564;53.312;9.790;2023-08-31T04:39:17;99897.13;;;10.45;100.00
39891;BME280;25564;53.312;9.790;2023-08-31T04:41:49;99896.31;;;10.43;100.00
39891;BME280;25564;53.312;9.790;2023-08-31T04:44:20;99877.19;;;10.33;100.00
39891;BME280;25564;53.312;9.790;2023-08-31T04:46:52;99887.66;;;10.38;100.00
39891;BME280;25564;53.312;9.790;2023-08-31T04:49:23;99906.00;;;10.44;100.00
39891;BME280;25564;53.312;9.790;2023-08-31T04:51:55;99828.69;;;9.99;100.00
39891;BME280;25564;53.312;9.790;2023-08-31T04:54:27;99876.53;;;10.25;100.00
39891;BME280;25564;53.312;9.790;2023-08-31T04:56:58;99932.16;;;10.56;100.00
39891;BME280;25564;53.312;9.790;2023-08-31T04:59:30;99920.78;;;10.53;100.00
39891;BME280;25564;53.312;9.790;2023-08-31T05:02:02;99920.59;;;10.59;100.00
39891;BME280;25564;53.312;9.790;2023-08-31T05:04:34;99909.28;;;10.52;100.00
39891;BME280;25564;53.312;9.790;2023-08-31T05:07:05;99939.63;;;10.73;100.00
39891;BME280;25564;53.312;9.790;2023-08-31T05:09:37;99937.78;;;10.75;100.00
39891;BME280;25564;53.312;9.790;2023-08-31T05:12:08;99946.34;;;10.85;100.00
39891;BME280;25564;53.312;9.790;2023-08-31T05:14:42;99937.41;;;10.87;100.00
39891;BME280;25564;53.312;9.790;2023-08-31T05:17:14;99933.94;;;10.85;100.00
39891;BME280;25564;53.312;9.790;2023-08-31T05:19:45;99926.78;;;10.87;100.00
39891;BME280;25564;53.312;9.790;2023-08-31T05:22:18;99935.47;;;10.92;100.00
39891;BME280;25564;53.312;9.790;2023-08-31T05:24:49;99942.34;;;10.99;100.00
39891;BME280;25564;53.312;9.790;2023-08-31T05:27:21;99935.38;;;10.95;100.00
39891;BME280;25564;53.312;9.790;2023-08-31T05:29:52;99937.13;;;10.96;100.00
39891;BME280;25564;53.312;9.790;2023-08-31T05:32:28;99947.09;;;11.16;100.00
39891;BME280;25564;53.312;9.790;2023-08-31T05:34:59;99885.09;;;10.91;100.00
39891;BME280;25564;53.312;9.790;2023-08-31T05:37:32;99942.28;;;11.29;100.00
39891;BME280;25564;53.312;9.790;2023-08-31T05:40:06;99953.16;;;11.46;100.00
39891;BME280;25564;53.312;9.790;2023-08-31T05:42:40;99957.75;;;11.94;100.00
39891;BME280;25564;53.312;9.790;2023-08-31T05:45:12;99960.91;;;12.05;100.00
39891;BME280;25564;53.312;9.790;2023-08-31T05:47:43;99933.63;;;12.00;100.00
39891;BME280;25564;53.312;9.790;2023-08-31T05:50:15;99966.16;;;12.31;100.00
39891;BME280;25564;53.312;9.790;2023-08-31T05:52:46;99933.28;;;12.09;100.00
39891;BME280;25564;53.312;9.790;2023-08-31T05:55:18;99915.63;;;12.53;100.00
39891;BME280;25564;53.312;9.790;2023-08-31T05:57:49;99978.19;;;13.75;100.00
39891;BME280;25564;53.312;9.790;2023-08-31T06:00:21;99970.03;;;14.39;100.00
39891;BME280;25564;53.312;9.790;2023-08-31T06:02:55;99959.19;;;14.24;100.00
39891;BME280;25564;53.312;9.790;2023-08-31T06:05:27;99918.91;;;13.89;99.76
39891;BME280;25564;53.312;9.790;2023-08-31T06:08:00;99948.44;;;14.25;99.80
39891;BME280;25564;53.312;9.790;2023-08-31T06:10:31;99982.50;;;14.78;100.00
39891;BME280;25564;53.312;9.790;2023-08-31T06:13:03;99986.25;;;14.93;99.87
39891;BME280;25564;53.312;9.790;2023-08-31T06:15:34;99943.66;;;14.71;99.56
39891;BME280;25564;53.312;9.790;2023-08-31T06:18:06;99989.72;;;14.95;99.79
39891;BME280;25564;53.312;9.790;2023-08-31T06:20:38;99958.22;;;14.64;100.00
39891;BME280;25564;53.312;9.790;2023-08-31T06:23:10;99993.03;;;14.81;100.00
39891;BME280;25564;53.312;9.790;2023-08-31T06:25:42;99986.84;;;14.81;100.00
39891;BME280;25564;53.312;9.790;2023-08-31T06:28:14;100004.81;;;14.96;100.00
39891;BME280;25564;53.312;9.790;2023-08-31T06:30:45;99968.50;;;14.73;100.00
39891;BME280;25564;53.312;9.790;2023-08-31T06:33:19;99919.66;;;14.32;100.00
39891;BME280;25564;53.312;9.790;2023-08-31T06:35:51;99985.81;;;14.64;100.00
39891;BME280;25564;53.312;9.790;2023-08-31T06:38:23;99954.88;;;14.40;100.00
39891;BME280;25564;53.312;9.790;2023-08-31T06:40:54;99983.00;;;14.49;100.00
39891;BME280;25564;53.312;9.790;2023-08-31T06:43:30;99983.66;;;14.54;100.00
39891;BME280;25564;53.312;9.790;2023-08-31T06:46:01;99984.00;;;14.65;100.00
39891;BME280;25564;53.312;9.790;2023-08-31T06:48:52;99951.81;;;14.68;100.00
39891;BME280;25564;53.312;9.790;2023-08-31T06:51:24;99992.03;;;15.02;100.00
39891;BME280;25564;53.312;9.790;2023-08-31T06:53:56;99982.78;;;15.10;100.00
39891;BME280;25564;53.312;9.790;2023-08-31T06:56:27;99973.97;;;15.08;100.00
39891;BME280;25564;53.312;9.790;2023-08-31T06:58:58;99976.84;;;15.22;100.00
39891;BME280;25564;53.312;9.790;2023-08-31T07:01:30;99991.06;;;15.41;100.00
39891;BME280;25564;53.312;9.790;2023-08-31T07:04:04;99985.91;;;15.55;100.00
39891;BME280;25564;53.312;9.790;2023-08-31T07:06:35;99948.66;;;15.33;100.00
39891;BME280;25564;53.312;9.790;2023-08-31T07:09:07;99996.63;;;15.73;100.00
39891;BME280;25564;53.312;9.790;2023-08-31T07:11:39;99987.50;;;15.77;100.00
39891;BME280;25564;53.312;9.790;2023-08-31T07:14:12;99989.72;;;16.03;100.00
39891;BME280;25564;53.312;9.790;2023-08-31T07:16:43;99942.97;;;15.93;100.00
39891;BME280;25564;53.312;9.790;2023-08-31T07:19:14;99990.88;;;16.32;100.00
39891;BME280;25564;53.312;9.790;2023-08-31T07:21:46;99978.03;;;16.39;100.00
39891;BME280;25564;53.312;9.790;2023-08-31T07:24:18;99977.91;;;16.57;100.00
39891;BME280;25564;53.312;9.790;2023-08-31T07:26:50;99988.34;;;16.79;100.00
39891;BME280;25564;53.312;9.790;2023-08-31T07:29:22;99930.91;;;16.52;100.00
39891;BME280;25564;53.312;9.790;2023-08-31T07:31:53;99993.34;;;16.85;100.00
39891;BME280;25564;53.312;9.790;2023-08-31T07:34:25;99993.63;;;16.96;100.00
39891;BME280;25564;53.312;9.790;2023-08-31T07:36:56;99951.88;;;16.92;100.00
39891;BME280;25564;53.312;9.790;2023-08-31T07:39:28;100000.47;;;17.49;100.00
39891;BME280;25564;53.312;9.790;2023-08-31T07:41:59;100004.56;;;17.86;100.00
39891;BME280;25564;53.312;9.790;2023-08-31T07:44:31;100003.94;;;17.97;100.00
39891;BME280;25564;53.312;9.790;2023-08-31T07:47:02;99997.63;;;17.98;100.00
39891;BME280;25564;53.312;9.790;2023-08-31T07:49:34;100011.81;;;18.00;100.00
39891;BME280;25564;53.312;9.790;2023-08-31T07:52:05;99994.06;;;17.97;100.00
39891;BME280;25564;53.312;9.790;2023-08-31T07:54:37;100013.44;;;18.03;100.00
39891;BME280;25564;53.312;9.790;2023-08-31T07:57:08;99981.59;;;17.96;100.00
39891;BME280;25564;53.312;9.790;2023-08-31T07:59:39;99994.66;;;18.03;100.00
39891;BME280;25564;53.312;9.790;2023-08-31T08:02:12;99988.69;;;17.97;100.00
39891;BME280;25564;53.312;9.790;2023-08-31T08:04:45;100004.56;;;18.16;100.00
39891;BME280;25564;53.312;9.790;2023-08-31T08:07:17;100017.38;;;18.41;100.00
39891;BME280;25564;53.312;9.790;2023-08-31T08:09:48;100011.56;;;18.77;100.00
39891;BME280;25564;53.312;9.790;2023-08-31T08:12:20;100025.09;;;18.90;100.00
39891;BME280;25564;53.312;9.790;2023-08-31T08:14:51;100030.41;;;18.63;100.00
39891;BME280;25564;53.312;9.790;2023-08-31T08:17:23;100028.78;;;18.30;100.00
39891;BME280;25564;53.312;9.790;2023-08-31T08:19:54;100034.63;;;18.23;100.00
39891;BME280;25564;53.312;9.790;2023-08-31T08:22:25;99964.84;;;17.77;100.00
39891;BME280;25564;53.312;9.790;2023-08-31T08:24:57;100032.69;;;18.25;100.00
39891;BME280;25564;53.312;9.790;2023-08-31T08:27:28;100017.53;;;18.24;100.00
39891;BME280;25564;53.312;9.790;2023-08-31T08:30:00;100019.41;;;18.38;100.00
39891;BME280;25564;53.312;9.790;2023-08-31T08:32:32;100014.22;;;18.35;99.61
39891;BME280;25564;53.312;9.790;2023-08-31T08:35:04;99995.97;;;18.25;99.98
39891;BME280;25564;53.312;9.790;2023-08-31T08:37:36;100029.78;;;18.44;99.28
39891;BME280;25564;53.312;9.790;2023-08-31T08:40:09;100027.47;;;18.52;99.15
39891;BME280;25564;53.312;9.790;2023-08-31T08:42:41;99977.38;;;18.37;98.82
39891;BME280;25564;53.312;9.790;2023-08-31T08:45:14;100009.25;;;18.57;98.14
39891;BME280;25564;53.312;9.790;2023-08-31T08:47:49;100026.34;;;18.84;98.03
39891;BME280;25564;53.312;9.790;2023-08-31T08:50:22;100016.53;;;19.12;98.00
39891;BME280;25564;53.312;9.790;2023-08-31T08:52:54;100031.88;;;19.52;96.76
39891;BME280;25564;53.312;9.790;2023-08-31T08:55:27;100012.06;;;19.93;96.14
39891;BME280;25564;53.312;9.790;2023-08-31T08:57:58;100027.75;;;20.13;95.04
39891;BME280;25564;53.312;9.790;2023-08-31T09:00:34;100034.59;;;19.92;94.18
39891;BME280;25564;53.312;9.790;2023-08-31T09:03:08;100024.66;;;19.53;93.95
39891;BME280;25564;53.312;9.790;2023-08-31T09:05:39;99961.25;;;18.93;93.83
39891;BME280;25564;53.312;9.790;2023-08-31T09:08:11;99985.16;;;18.98;93.31
39891;BME280;25564;53.312;9.790;2023-08-31T09:10:46;100035.56;;;19.09;92.60
39891;BME280;25564;53.312;9.790;2023-08-31T09:13:18;100037.69;;;18.75;92.11
39891;BME280;25564;53.312;9.790;2023-08-31T09:15:50;100033.63;;;18.54;92.24
39891;BME280;25564;53.312;9.790;2023-08-31T09:18:31;99972.38;;;18.30;91.17
39891;BME280;25564;53.312;9.790;2023-08-31T09:21:04;99978.03;;;18.40;91.62
39891;BME280;25564;53.312;9.790;2023-08-31T09:23:35;100034.53;;;18.69;90.87
39891;BME280;25564;53.312;9.790;2023-08-31T09:26:06;100034.75;;;18.36;90.17
39891;BME280;25564;53.312;9.790;2023-08-31T09:28:40;100039.25;;;18.05;90.03
39891;BME280;25564;53.312;9.790;2023-08-31T09:31:12;100031.44;;;17.71;90.67
39891;BME280;25564;53.312;9.790;2023-08-31T09:33:51;99971.16;;;17.15;91.16
39891;BME280;25564;53.312;9.790;2023-08-31T09:36:22;100044.25;;;17.34;91.28
39891;BME280;25564;53.312;9.790;2023-08-31T09:38:58;99965.44;;;16.89;91.40
39891;BME280;25564;53.312;9.790;2023-08-31T09:41:30;100036.47;;;17.14;91.61
39891;BME280;25564;53.312;9.790;2023-08-31T09:44:27;100043.22;;;17.21;91.69
39891;BME280;25564;53.312;9.790;2023-08-31T09:46:59;100035.16;;;17.05;91.51
39891;BME280;25564;53.312;9.790;2023-08-31T09:49:32;100035.88;;;16.76;92.09
39891;BME280;25564;53.312;9.790;2023-08-31T09:52:05;100012.19;;;16.51;92.72
39891;BME280;25564;53.312;9.790;2023-08-31T09:54:38;100035.53;;;16.82;92.36
39891;BME280;25564;53.312;9.790;2023-08-31T09:57:11;100045.13;;;17.19;92.13
39891;BME280;25564;53.312;9.790;2023-08-31T09:59:44;100044.59;;;17.59;91.31
39891;BME280;25564;53.312;9.790;2023-08-31T10:02:16;100029.97;;;17.81;90.65
39891;BME280;25564;53.312;9.790;2023-08-31T10:04:49;99978.97;;;17.81;90.69
39891;BME280;25564;53.312;9.790;2023-08-31T10:07:24;100038.19;;;18.38;90.26
39891;BME280;25564;53.312;9.790;2023-08-31T10:09:56;100037.03;;;18.72;89.65
39891;BME280;25564;53.312;9.790;2023-08-31T10:12:28;100038.75;;;19.01;89.23
39891;BME280;25564;53.312;9.790;2023-08-31T10:15:00;100035.91;;;19.31;88.49
39891;BME280;25564;53.312;9.790;2023-08-31T10:17:33;99996.84;;;19.11;88.14
39891;BME280;25564;53.312;9.790;2023-08-31T10:20:09;100041.69;;;19.25;87.55
39891;BME280;25564;53.312;9.790;2023-08-31T10:22:40;100046.22;;;18.96;88.57
39891;BME280;25564;53.312;9.790;2023-08-31T10:25:12;100042.69;;;18.67;90.07
39891;BME280;25564;53.312;9.790;2023-08-31T10:27:44;100039.81;;;18.70;89.48
39891;BME280;25564;53.312;9.790;2023-08-31T10:38:29;100032.69;;;20.07;86.69
39891;BME280;25564;53.312;9.790;2023-08-31T10:43:55;99979.72;;;19.80;84.45
39891;BME280;25564;53.312;9.790;2023-08-31T10:51:45;100034.16;;;20.38;83.74
39891;BME280;25564;53.312;9.790;2023-08-31T10:54:23;100033.25;;;20.64;83.18
39891;BME280;25564;53.312;9.790;2023-08-31T10:59:51;100022.09;;;21.07;80.93
39891;BME280;25564;53.312;9.790;2023-08-31T11:02:36;100048.16;;;21.44;80.70
39891;BME280;25564;53.312;9.790;2023-08-31T11:05:14;100037.56;;;21.54;80.46
39891;BME280;25564;53.312;9.790;2023-08-31T11:07:48;100042.63;;;21.59;80.15
39891;BME280;25564;53.312;9.790;2023-08-31T11:10:24;99998.78;;;21.55;78.97
39891;BME280;25564;53.312;9.790;2023-08-31T11:12:59;100048.63;;;21.86;78.83
39891;BME280;25564;53.312;9.790;2023-08-31T11:15:31;100052.69;;;22.04;78.54
39891;BME280;25564;53.312;9.790;2023-08-31T11:18:04;100046.50;;;22.26;77.67
39891;BME280;25564;53.312;9.790;2023-08-31T11:20:36;100047.41;;;21.79;76.55
39891;BME280;25564;53.312;9.790;2023-08-31T11:23:08;100042.84;;;21.56;77.67
39891;BME280;25564;53.312;9.790;2023-08-31T11:25:39;100054.66;;;21.42;77.25
39891;BME280;25564;53.312;9.790;2023-08-31T11:28:11;100066.97;;;21.08;77.31
39891;BME280;25564;53.312;9.790;2023-08-31T11:30:42;99997.63;;;20.34;77.65
39891;BME280;25564;53.312;9.790;2023-08-31T11:33:15;100046.28;;;20.45;78.08
39891;BME280;25564;53.312;9.790;2023-08-31T11:35:47;100048.16;;;20.30;78.62
39891;BME280;25564;53.312;9.790;2023-08-31T11:38:19;100059.13;;;20.54;78.08
39891;BME280;25564;53.312;9.790;2023-08-31T11:40:50;100005.03;;;20.17;76.77
39891;BME280;25564;53.312;9.790;2023-08-31T11:43:27;100050.94;;;20.55;76.92
39891;BME280;25564;53.312;9.790;2023-08-31T11:45:58;99999.91;;;20.40;76.51
39891;BME280;25564;53.312;9.790;2023-08-31T11:48:32;100062.28;;;20.73;76.33
39891;BME280;25564;53.312;9.790;2023-08-31T11:51:04;100056.22;;;20.70;76.09
39891;BME280;25564;53.312;9.790;2023-08-31T11:53:36;100010.72;;;20.52;75.88
39891;BME280;25564;53.312;9.790;2023-08-31T11:56:08;100067.84;;;20.96;75.81
39891;BME280;25564;53.312;9.790;2023-08-31T11:58:42;100056.84;;;21.24;74.93
39891;BME280;25564;53.312;9.790;2023-08-31T12:01:32;100071.19;;;21.74;75.13
39891;BME280;25564;53.312;9.790;2023-08-31T12:04:10;100004.75;;;21.47;73.04
39891;BME280;25564;53.312;9.790;2023-08-31T12:06:46;100071.53;;;21.69;73.54
39891;BME280;25564;53.312;9.790;2023-08-31T12:09:17;100077.91;;;21.68;73.93
39891;BME280;25564;53.312;9.790;2023-08-31T12:11:52;100046.22;;;21.46;74.23
39891;BME280;25564;53.312;9.790;2023-08-31T12:14:25;100084.22;;;21.56;74.27
39891;BME280;25564;53.312;9.790;2023-08-31T12:17:05;100079.91;;;21.41;72.43
39891;BME280;25564;53.312;9.790;2023-08-31T12:19:38;100084.91;;;21.21;71.59
39891;BME280;25564;53.312;9.790;2023-08-31T12:22:11;100089.84;;;21.15;72.97
39891;BME280;25564;53.312;9.790;2023-08-31T12:24:45;100068.91;;;21.44;73.18
39891;BME280;25564;53.312;9.790;2023-08-31T12:27:16;100085.75;;;22.08;72.38
39891;BME280;25564;53.312;9.790;2023-08-31T12:29:48;100083.03;;;22.32;71.21
39891;BME280;25564;53.312;9.790;2023-08-31T12:32:21;100073.94;;;22.33;70.86
39891;BME280;25564;53.312;9.790;2023-08-31T12:34:52;100082.06;;;22.09;69.61
39891;BME280;25564;53.312;9.790;2023-08-31T12:37:24;100078.59;;;21.59;70.75
39891;BME280;25564;53.312;9.790;2023-08-31T12:39:55;100083.03;;;21.47;71.19
39891;BME280;25564;53.312;9.790;2023-08-31T12:42:26;100087.03;;;21.42;71.11
39891;BME280;25564;53.312;9.790;2023-08-31T12:44:58;100102.38;;;21.16;70.27
39891;BME280;25564;53.312;9.790;2023-08-31T12:47:29;100106.00;;;20.39;70.99
39891;BME280;25564;53.312;9.790;2023-08-31T12:50:01;100109.22;;;18.78;73.18
39891;BME280;25564;53.312;9.790;2023-08-31T12:52:34;100115.25;;;17.76;76.99
39891;BME280;25564;53.312;9.790;2023-08-31T12:55:05;100113.59;;;17.09;79.30
39891;BME280;25564;53.312;9.790;2023-08-31T12:57:37;100027.25;;;15.84;80.72
39891;BME280;25564;53.312;9.790;2023-08-31T13:00:10;100063.41;;;15.57;82.96
39891;BME280;25564;53.312;9.790;2023-08-31T13:02:45;100114.56;;;15.68;84.57
39891;BME280;25564;53.312;9.790;2023-08-31T13:05:16;100111.72;;;15.71;85.96
39891;BME280;25564;53.312;9.790;2023-08-31T13:07:48;100107.91;;;15.77;86.68
39891;BME280;25564;53.312;9.790;2023-08-31T13:10:19;100112.38;;;15.76;87.68
39891;BME280;25564;53.312;9.790;2023-08-31T13:12:51;100130.75;;;15.84;88.39
39891;BME280;25564;53.312;9.790;2023-08-31T13:15:22;100044.06;;;15.69;89.00
39891;BME280;25564;53.312;9.790;2023-08-31T13:17:53;100106.72;;;16.35;90.11
39891;BME280;25564;53.312;9.790;2023-08-31T13:20:25;100037.50;;;16.11;90.14
39891;BME280;25564;53.312;9.790;2023-08-31T13:22:58;100119.25;;;16.52;90.81
39891;BME280;25564;53.312;9.790;2023-08-31T13:25:30;100086.41;;;16.49;90.70
39891;BME280;25564;53.312;9.790;2023-08-31T13:28:02;100087.34;;;16.48;91.22
39891;BME280;25564;53.312;9.790;2023-08-31T13:30:35;100126.09;;;16.75;91.09
39891;BME280;25564;53.312;9.790;2023-08-31T13:33:06;100045.69;;;16.25;90.90
39891;BME280;25564;53.312;9.790;2023-08-31T13:35:38;100115.25;;;16.61;91.48
39891;BME280;25564;53.312;9.790;2023-08-31T13:38:09;100117.28;;;16.56;91.73
39891;BME280;25564;53.312;9.790;2023-08-31T13:40:41;100086.09;;;16.38;91.79